Terminal Aerodrome Forecast
Issued by NWS

Home | Current Version | Previous Version | Text Only | Print | Product List | Glossary On
Versions: 1 2 3 4 5 6 7 8 9 10 11 12 13 14 15 16 17 18
000
FTUS45 KVEF 280800 AAA
TAFVGT
TAF AMD
KVGT 280831Z 2809/2906 33006KT P6SM SCT030 SCT250
     FM281700 VRB05KT P6SM FEW050 OVC250
     FM290200 33005KT P6SM OVC200=

USA.gov is the U.S. government's official web portal to all federal, state and local government web resources and services.